Portada
METAR-TAF:

METAR-TAF

Aeroports :

Recife, Pernambuco, Brasil

latitud: 08-08S, longitud: 034-55W, altitud: 19 m

Observació

L'informe es va fer fa 30 minuts, a les 08:00 UTC
Vent 5 kt del Nord-Est
Temperatura 25°C
Humitat 79%
Pressió 1010 hPa
Visibilitat 10 km o més
Escasses núvols a una alçada de 2200 ft

METAR: SBRF 200800Z 05005KT 9999 FEW022 25/21 Q1010

Hora: 05:30 (08:30 UTC)

Pronòstic

L'informe es va fer fa 6 hores i 30 minuts, a les 02:00 UTC
Pronòstic vàlid del 20 a les 06 UTC al 21 a les 06 UTC
Vent 8 kt del Est
Visibilitat: 8000 m
Núvols disperses a una alçada de 2000 ft

TAF: SBRF 200200Z 2006/2106 08008KT 8000 SCT020 TN25/2008Z TX28/2015Z RMK PEA

Observacions i pronòstics meteorològics de més de 4000 aeroports (METAR i TAF).

Les estacions disponibles són els punts grocs i vermells al mapa.

Posi el ratolí al punt desitjat per veure el nom de l'estació.

Feu clic per veure les observacions i els pronòstics meteorològics.

Per canviar el mapa: feu clic els botons verds amb una creu de color negre per apropar; al botó verd amb un guió per allunyar la imatge; o en les fletxes verdes per a mapes adjacents.


METAR-TAF: